Time;durP1;ratioP1;P1;durP2;ratioP2;P2;SDS_P1;SDS_P2;PMS_P1;PMS_P2;Temp;Humidity;BMP_temperature;BMP_pressure;BME280_temperature;BME280_humidity;BME280_pressure;Samples;Min_cycle;Max_cycle;Signal;HPM_P1;HPM_P2
2021/06/22 00:00:58;;;;;;;;;20.00;20.00;;;;;31.89;42.54;100636.44;144169;605;132010;-76
2021/06/22 00:03:28;;;;;;;;;7.33;7.00;;;;;31.90;42.98;100637.25;144156;564;131907;-79
2021/06/22 00:05:59;;;;;;;;;14.00;13.00;;;;;31.93;42.46;100633.78;144167;666;132010;-71
2021/06/22 00:08:29;;;;;;;;;18.67;17.33;;;;;31.97;42.59;100634.75;144147;575;133018;-72
2021/06/22 00:10:59;;;;;;;;;23.33;23.33;;;;;32.10;42.02;100640.47;144173;570;131021;-72
2021/06/22 00:13:29;;;;;;;;;22.00;22.00;;;;;32.13;43.11;100637.00;144172;606;131014;-73
2021/06/22 00:15:59;;;;;;;;;24.00;20.00;;;;;32.11;42.16;100639.31;144172;566;132006;-73
2021/06/22 00:18:29;;;;;;;;;20.00;18.33;;;;;32.05;42.23;100636.72;144151;620;132010;-72
2021/06/22 00:20:59;;;;;;;;;19.33;18.33;;;;;31.99;42.23;100626.84;144150;572;132010;-71
2021/06/22 00:23:29;;;;;;;;;18.00;18.00;;;;;31.93;42.20;100633.78;144152;629;132907;-71
2021/06/22 00:25:59;;;;;;;;;18.33;18.00;;;;;31.96;41.12;100621.94;144169;567;131021;-71
2021/06/22 00:28:30;;;;;;;;;14.33;14.33;;;;;31.94;40.67;100621.44;144149;592;132014;-72
2021/06/22 00:31:00;;;;;;;;;20.00;18.67;;;;;31.92;39.81;100618.16;144169;588;132010;-71
2021/06/22 00:33:30;;;;;;;;;12.00;11.00;;;;;31.94;39.49;100615.06;144149;604;132021;-72
2021/06/22 00:36:00;;;;;;;;;18.67;18.00;;;;;31.90;39.07;100609.31;144174;626;131010;-75
2021/06/22 00:38:30;;;;;;;;;18.67;18.00;;;;;31.89;39.36;100604.88;144162;589;132018;-71
2021/06/22 00:41:00;;;;;;;;;17.67;17.33;;;;;31.85;39.34;100603.91;144168;621;132008;-71
2021/06/22 00:43:30;;;;;;;;;16.67;14.00;;;;;31.82;39.50;100604.56;144153;608;131906;-71
2021/06/22 00:46:02;;;;;;;;;19.00;16.67;;;;;31.81;39.21;100602.91;144158;566;131020;-70
2021/06/22 00:48:32;;;;;;;;;22.00;20.33;;;;;31.78;39.06;100598.84;144143;643;132019;-71
2021/06/22 00:51:02;;;;;;;;;15.00;15.00;;;;;31.68;38.17;100608.34;144161;613;132008;-71
2021/06/22 00:53:34;;;;;;;;;15.00;14.00;;;;;31.58;38.53;100606.72;144149;564;132010;-70
2021/06/22 00:56:05;;;;;;;;;15.00;15.00;;;;;31.48;39.01;100605.12;144165;614;132006;-70
2021/06/22 00:58:35;;;;;;;;;22.00;21.00;;;;;31.36;38.85;100610.56;144144;586;132018;-70
2021/06/22 01:01:05;;;;;;;;;15.33;14.00;;;;;31.22;39.03;100598.75;144167;588;132008;-72
2021/06/22 01:03:35;;;;;;;;;24.33;21.67;;;;;31.12;40.08;100600.72;144161;575;132010;-72
2021/06/22 01:06:06;;;;;;;;;17.67;17.00;;;;;31.00;39.52;100594.97;144169;569;132006;-72
2021/06/22 01:08:36;;;;;;;;;22.67;20.67;;;;;30.95;40.04;100595.12;144150;586;132907;-71
2021/06/22 01:11:06;;;;;;;;;23.00;20.67;;;;;30.85;39.98;100599.91;144152;573;132010;-71
2021/06/22 01:13:36;;;;;;;;;13.00;13.00;;;;;30.82;39.93;100594.16;144148;694;132020;-78
2021/06/22 01:16:18;;;;;;;;;18.33;18.00;;;;;30.79;39.91;100595.63;144166;682;132020;-78
2021/06/22 01:18:48;;;;;;;;;19.33;18.33;;;;;30.85;39.91;100585.94;144153;566;132010;-78
2021/06/22 01:21:18;;;;;;;;;14.33;13.33;;;;;30.88;40.40;100592.81;144174;570;131020;-78
2021/06/22 01:23:49;;;;;;;;;17.00;17.00;;;;;30.89;39.58;100592.50;144145;589;132907;-72
2021/06/22 01:26:19;;;;;;;;;16.00;15.00;;;;;30.95;39.54;100589.53;144167;572;132006;-71
2021/06/22 01:28:49;;;;;;;;;11.33;10.67;;;;;30.98;39.96;100591.69;144162;579;131907;-77
2021/06/22 01:31:20;;;;;;;;;19.67;19.67;;;;;30.92;40.45;100586.25;144166;584;132008;-75
2021/06/22 01:33:50;;;;;;;;;22.67;18.00;;;;;31.05;41.00;100592.00;144148;602;132010;-73
2021/06/22 01:36:21;;;;;;;;;16.33;14.00;;;;;30.70;41.43;100589.22;144158;613;132008;-72
2021/06/22 01:38:51;;;;;;;;;19.67;19.67;;;;;30.87;39.99;100586.44;144150;564;132010;-80
2021/06/22 01:41:22;;;;;;;;;18.67;17.33;;;;;30.80;39.76;100588.88;144171;677;132010;-75
2021/06/22 01:43:52;;;;;;;;;19.33;19.33;;;;;30.72;39.76;100587.72;144148;574;132907;-72
2021/06/22 01:46:23;;;;;;;;;15.00;14.67;;;;;30.70;39.92;100584.44;144168;609;132011;-74
2021/06/22 01:48:53;;;;;;;;;17.00;17.00;;;;;30.72;40.29;100592.50;144152;630;132010;-73
2021/06/22 01:51:23;;;;;;;;;18.33;17.00;;;;;30.64;40.23;100586.56;144174;621;132008;-74
2021/06/22 01:53:55;;;;;;;;;19.33;17.33;;;;;30.55;40.45;100591.31;144164;610;131031;-70
2021/06/22 01:56:27;;;;;;;;;17.67;17.33;;;;;30.52;40.59;100585.56;144164;569;132006;-71
2021/06/22 01:59:00;;;;;;;;;21.33;18.67;;;;;30.52;41.65;100575.22;144145;564;132018;-73
2021/06/22 02:01:31;;;;;;;;;19.33;19.33;;;;;30.39;41.80;100570.62;144147;575;132009;-73
2021/06/22 02:04:02;;;;;;;;;18.00;18.00;;;;;30.37;41.40;100565.34;144146;675;132906;-72
2021/06/22 02:06:35;;;;;;;;;21.33;19.00;;;;;30.41;41.57;100571.09;144162;692;132008;-73
2021/06/22 02:09:06;;;;;;;;;17.33;16.00;;;;;30.41;42.13;100565.53;144148;620;132010;-73
2021/06/22 02:11:36;;;;;;;;;19.00;19.00;;;;;30.41;42.11;100573.91;144167;599;132008;-73
2021/06/22 02:14:06;;;;;;;;;18.00;17.67;;;;;30.42;42.05;100569.97;144149;659;132024;-75
2021/06/22 02:16:36;;;;;;;;;17.33;17.33;;;;;30.42;41.85;100573.56;144167;651;132010;-74
2021/06/22 02:19:06;;;;;;;;;21.33;20.33;;;;;30.36;41.96;100570.09;144157;655;132010;-74
2021/06/22 02:21:37;;;;;;;;;16.00;16.00;;;;;30.46;40.93;100570.94;144166;578;132006;-72
2021/06/22 02:24:07;;;;;;;;;15.00;15.00;;;;;30.49;40.87;100575.84;144144;572;132012;-74
2021/06/22 02:26:37;;;;;;;;;19.33;18.33;;;;;30.49;40.49;100578.66;144154;595;131022;-77
2021/06/22 02:29:07;;;;;;;;;18.67;17.67;;;;;30.44;40.63;100564.88;144146;612;133010;-78
2021/06/22 02:31:37;;;;;;;;;17.00;14.33;;;;;30.42;40.61;100576.34;144164;571;133008;-78
2021/06/22 02:34:07;;;;;;;;;17.67;17.00;;;;;30.48;40.14;100577.00;144149;598;132010;-81
2021/06/22 02:36:37;;;;;;;;;18.67;18.67;;;;;30.51;40.07;100576.34;144169;581;131020;-72
2021/06/22 02:39:08;;;;;;;;;16.33;16.33;;;;;30.52;40.63;100572.44;144152;600;131907;-72
2021/06/22 02:41:38;;;;;;;;;20.00;18.33;;;;;30.49;41.29;100573.91;144171;590;132010;-72
2021/06/22 02:44:08;;;;;;;;;13.67;13.67;;;;;30.41;40.96;100576.69;144170;580;131906;-72
2021/06/22 02:46:38;;;;;;;;;34.00;31.75;;;;;30.36;40.68;100578.47;144165;564;132010;-72
2021/06/22 02:49:08;;;;;;;;;20.33;20.00;;;;;30.32;40.99;100577.47;144146;569;132037;-72
2021/06/22 02:51:38;;;;;;;;;14.67;13.67;;;;;30.32;40.77;100583.06;144152;572;131020;-72
2021/06/22 02:54:08;;;;;;;;;20.00;20.00;;;;;30.31;40.84;100584.22;144151;564;132907;-72
2021/06/22 02:56:38;;;;;;;;;20.67;19.67;;;;;30.33;41.43;100589.47;144169;590;131022;-72
2021/06/22 02:59:09;;;;;;;;;20.33;18.33;;;;;30.33;40.71;100604.22;144141;680;132016;-70
2021/06/22 03:01:39;;;;;;;;;20.00;18.67;;;;;30.30;41.16;100604.03;144164;648;132010;-71
2021/06/22 03:04:09;;;;;;;;;20.33;18.00;;;;;30.33;41.06;100609.00;144149;582;132010;-71
2021/06/22 03:06:39;;;;;;;;;21.33;18.00;;;;;30.36;41.79;100603.56;144165;614;132008;-70
2021/06/22 03:09:09;;;;;;;;;19.67;19.33;;;;;30.39;41.50;100612.47;144157;683;132015;-70
2021/06/22 03:11:39;;;;;;;;;23.33;22.67;;;;;30.40;41.81;100611.31;144167;683;131020;-70
2021/06/22 03:14:09;;;;;;;;;20.00;20.00;;;;;30.42;42.19;100611.81;144149;571;132010;-71
2021/06/22 03:16:40;;;;;;;;;20.00;18.67;;;;;30.44;42.13;100610.31;144149;578;131021;-72
2021/06/22 03:19:10;;;;;;;;;14.33;14.33;;;;;30.48;41.67;100611.34;144146;660;131907;-72
2021/06/22 03:21:43;;;;;;;;;17.67;17.67;;;;;30.53;41.67;100612.31;144170;596;131020;-72
2021/06/22 03:24:16;;;;;;;;;20.00;18.33;;;;;30.56;41.32;100612.50;144147;571;132019;-72
2021/06/22 03:26:47;;;;;;;;;20.33;20.00;;;;;30.58;42.09;100617.72;144169;585;132010;-72
2021/06/22 03:29:19;;;;;;;;;19.33;18.33;;;;;30.62;41.93;100613.16;144141;660;133018;-72
2021/06/22 03:31:50;;;;;;;;;17.67;17.67;;;;;30.66;41.46;100616.13;144165;607;132010;-71
2021/06/22 03:34:20;;;;;;;;;18.00;18.00;;;;;30.72;41.93;100626.00;144158;564;132010;-71
2021/06/22 03:36:50;;;;;;;;;16.67;16.67;;;;;30.77;41.07;100623.03;144166;596;132010;-71
2021/06/22 03:39:20;;;;;;;;;20.33;19.00;;;;;30.82;41.64;100624.84;144141;588;132013;-71
2021/06/22 03:41:50;;;;;;;;;16.33;15.00;;;;;30.82;41.04;100616.47;144147;601;132010;-70
2021/06/22 03:44:20;;;;;;;;;18.00;18.00;;;;;30.78;41.52;100624.69;144144;564;132907;-70
2021/06/22 03:46:50;;;;;;;;;17.33;17.33;;;;;30.75;41.71;100626.19;144165;579;131026;-70
2021/06/22 03:49:21;;;;;;;;;22.00;18.67;;;;;30.81;41.89;100635.19;144144;598;132018;-72
2021/06/22 03:51:53;;;;;;;;;14.33;14.00;;;;;30.86;41.21;100637.84;144166;648;131020;-69
2021/06/22 03:54:23;;;;;;;;;24.67;23.33;;;;;30.97;41.88;100645.91;144145;571;132010;-75
2021/06/22 03:56:53;;;;;;;;;21.33;21.00;;;;;31.01;41.28;100642.09;144170;628;132008;-74
2021/06/22 03:59:24;;;;;;;;;19.33;18.00;;;;;31.11;41.38;100643.78;144156;610;132907;-75
2021/06/22 04:01:54;;;;;;;;;16.33;15.67;;;;;31.24;41.63;100641.16;144169;600;132010;-75
2021/06/22 04:04:24;;;;;;;;;22.00;21.00;;;;;31.32;41.81;100655.09;144152;596;131919;-74
2021/06/22 04:06:54;;;;;;;;;20.67;19.00;;;;;31.39;41.83;100657.41;144147;564;132010;-75
2021/06/22 04:09:26;;;;;;;;;20.00;19.00;;;;;31.45;41.66;100663.63;144156;591;131907;-70
2021/06/22 04:11:56;;;;;;;;;20.67;18.00;;;;;31.52;41.61;100675.16;144166;588;132010;-70
2021/06/22 04:14:26;;;;;;;;;18.67;18.33;;;;;31.58;41.70;100670.22;144150;572;132907;-72
2021/06/22 04:16:57;;;;;;;;;18.67;17.33;;;;;31.61;41.16;100673.16;144167;582;132008;-72
2021/06/22 04:19:27;;;;;;;;;20.67;20.00;;;;;31.68;41.05;100671.84;144144;563;132020;-72
2021/06/22 04:21:57;;;;;;;;;17.67;17.67;;;;;31.74;41.11;100679.72;144165;605;133007;-72
2021/06/22 04:24:27;;;;;;;;;20.00;20.00;;;;;31.80;41.17;100679.56;144160;610;132029;-72
2021/06/22 04:26:57;;;;;;;;;17.67;16.67;;;;;31.85;40.19;100682.19;144169;563;131018;-72
2021/06/22 04:29:28;;;;;;;;;17.67;17.00;;;;;31.90;40.53;100685.59;144147;578;132907;-71
2021/06/22 04:31:58;;;;;;;;;19.00;18.00;;;;;31.98;40.10;100675.56;144158;589;132006;-72
2021/06/22 04:34:28;;;;;;;;;18.33;18.33;;;;;32.03;40.32;100680.97;144151;589;132012;-68
2021/06/22 04:36:58;;;;;;;;;16.33;16.33;;;;;32.07;40.62;100683.09;144168;578;132010;-72
2021/06/22 04:39:28;;;;;;;;;20.33;19.67;;;;;32.13;40.90;100690.12;144148;581;132021;-73
2021/06/22 04:41:58;;;;;;;;;13.00;12.67;;;;;32.18;39.53;100685.19;144168;576;132020;-71
2021/06/22 04:44:28;;;;;;;;;19.67;19.67;;;;;32.21;39.91;100680.06;144149;580;132020;-71
2021/06/22 04:46:59;;;;;;;;;20.00;19.00;;;;;32.25;40.13;100684.66;144169;580;132006;-71
2021/06/22 04:49:29;;;;;;;;;22.33;21.33;;;;;32.35;39.22;100688.28;144157;579;132010;-71
2021/06/22 04:51:59;;;;;;;;;18.00;17.00;;;;;32.43;39.72;100681.81;144167;579;132008;-71
2021/06/22 04:54:29;;;;;;;;;21.00;19.00;;;;;32.50;40.35;100678.47;144146;563;133019;-74
2021/06/22 04:57:00;;;;;;;;;18.67;17.67;;;;;32.60;40.49;100678.09;144157;581;131010;-73
2021/06/22 04:59:33;;;;;;;;;18.00;17.33;;;;;32.72;40.11;100683.78;144147;594;132012;-74
2021/06/22 05:02:04;;;;;;;;;21.00;19.33;;;;;32.83;39.58;100677.81;144169;574;132023;-76
2021/06/22 05:04:35;;;;;;;;;16.67;15.00;;;;;32.95;39.48;100677.09;144150;569;132020;-74
2021/06/22 05:07:05;;;;;;;;;19.33;19.00;;;;;33.08;39.01;100678.78;144171;646;132022;-71
2021/06/22 05:09:35;;;;;;;;;14.33;14.33;;;;;33.22;38.57;100684.09;144150;588;132012;-72
2021/06/22 05:12:06;;;;;;;;;23.00;19.67;;;;;33.29;38.31;100689.16;144170;626;132010;-70
2021/06/22 05:14:36;;;;;;;;;22.00;20.33;;;;;33.42;37.99;100695.66;144156;616;132907;-71
2021/06/22 05:17:06;;;;;;;;;21.33;21.33;;;;;33.44;38.08;100698.97;144169;591;131020;-71
2021/06/22 05:19:36;;;;;;;;;17.67;17.67;;;;;33.52;37.64;100700.03;144145;584;132012;-72
2021/06/22 05:22:06;;;;;;;;;20.67;20.67;;;;;33.61;37.36;100703.56;144158;604;131010;-72
2021/06/22 05:24:37;;;;;;;;;17.33;16.67;;;;;33.72;37.30;100709.59;144153;593;132010;-69
2021/06/22 05:27:07;;;;;;;;;19.67;18.33;;;;;33.83;36.91;100704.34;144170;580;132006;-69
2021/06/22 05:29:38;;;;;;;;;22.00;21.00;;;;;33.93;36.57;100700.28;144145;583;132012;-69
2021/06/22 05:32:08;;;;;;;;;18.33;17.00;;;;;34.07;36.12;100716.84;144167;593;132010;-70
2021/06/22 05:34:38;;;;;;;;;18.33;17.67;;;;;34.08;35.91;100715.66;144149;563;132907;-72
2021/06/22 05:37:08;;;;;;;;;20.67;19.00;;;;;34.17;36.47;100712.75;144168;617;132008;-72
2021/06/22 05:39:38;;;;;;;;;20.00;20.00;;;;;34.28;36.21;100713.91;144164;648;132906;-72
2021/06/22 05:42:09;;;;;;;;;22.67;20.67;;;;;34.37;36.29;100708.22;144167;583;132010;-72
2021/06/22 05:44:39;;;;;;;;;14.00;14.00;;;;;34.49;36.05;100715.81;144143;572;132907;-72
2021/06/22 05:47:09;;;;;;;;;16.33;16.33;;;;;34.53;36.15;100720.41;144157;626;132008;-71
2021/06/22 05:49:39;;;;;;;;;16.00;15.67;;;;;34.55;36.21;100720.88;144144;633;132010;-72
2021/06/22 05:52:09;;;;;;;;;14.33;14.33;;;;;34.58;36.51;100720.16;144165;572;132009;-74
2021/06/22 05:54:39;;;;;;;;;17.33;17.00;;;;;34.66;36.13;100709.16;144147;574;132010;-75
2021/06/22 05:57:09;;;;;;;;;18.67;18.67;;;;;34.79;35.76;100713.56;144170;571;132008;-74
2021/06/22 05:59:39;;;;;;;;;16.00;16.00;;;;;34.77;34.25;100723.53;144148;577;132010;-74
2021/06/22 06:02:09;;;;;;;;;15.67;14.67;;;;;34.80;34.82;100720.84;144165;564;132008;-71
2021/06/22 06:04:39;;;;;;;;;15.33;15.33;;;;;34.94;35.05;100725.25;144158;566;132010;-72
2021/06/22 06:07:10;;;;;;;;;15.67;15.00;;;;;35.02;34.79;100717.88;144170;570;131021;-71
2021/06/22 06:09:40;;;;;;;;;19.00;18.67;;;;;35.09;34.48;100718.13;144155;639;132022;-72
2021/06/22 06:12:10;;;;;;;;;14.00;14.00;;;;;35.17;34.17;100716.34;144154;617;132008;-73
2021/06/22 06:14:40;;;;;;;;;15.00;14.00;;;;;35.27;34.37;100713.03;144144;575;132907;-74
2021/06/22 06:17:10;;;;;;;;;15.00;15.00;;;;;35.36;34.07;100715.72;144167;607;132010;-74
2021/06/22 06:19:40;;;;;;;;;15.67;15.67;;;;;35.44;34.23;100708.28;144147;607;132010;-73
2021/06/22 06:22:10;;;;;;;;;16.33;16.00;;;;;35.49;34.12;100703.22;144167;600;132008;-74
2021/06/22 06:24:40;;;;;;;;;18.00;17.00;;;;;35.56;34.07;100702.66;144155;595;132010;-89
2021/06/22 06:27:14;;;;;;;;;16.33;16.33;;;;;35.64;33.72;100715.72;144168;605;132008;-69
2021/06/22 06:29:58;;;;;;;;;14.67;14.33;;;;;35.75;32.47;100718.00;144168;610;131907;-72
2021/06/22 06:32:28;;;;;;;;;16.33;16.00;;;;;35.75;32.95;100712.38;144171;573;132006;-72
2021/06/22 06:34:58;;;;;;;;;15.33;15.33;;;;;35.66;32.43;100707.72;144148;614;132020;-72
2021/06/22 06:37:29;;;;;;;;;18.33;17.67;;;;;35.57;33.13;100707.09;144153;625;132010;-72
2021/06/22 06:39:59;;;;;;;;;17.67;17.00;;;;;35.47;33.08;100708.41;144148;569;132012;-72
2021/06/22 06:42:29;;;;;;;;;16.33;16.00;;;;;35.36;32.81;100710.88;144166;563;132008;-71
2021/06/22 06:45:00;;;;;;;;;15.00;14.33;;;;;35.26;32.84;100706.59;144147;596;132021;-72
2021/06/22 06:47:30;;;;;;;;;15.33;15.00;;;;;35.24;33.31;100714.56;144173;579;131020;-72
2021/06/22 06:50:00;;;;;;;;;17.67;16.67;;;;;35.22;33.50;100704.84;144150;593;133015;-72
2021/06/22 06:52:30;;;;;;;;;19.33;18.67;;;;;35.19;32.85;100703.59;144170;596;131021;-71
2021/06/22 06:55:00;;;;;;;;;13.67;13.67;;;;;35.25;33.09;100704.16;144163;591;132012;-72
2021/06/22 06:57:31;;;;;;;;;20.33;18.67;;;;;35.39;33.72;100704.56;144166;600;132010;-73
2021/06/22 07:00:01;;;;;;;;;16.67;16.33;;;;;35.49;32.81;100703.22;144149;623;132019;-73
2021/06/22 07:02:31;;;;;;;;;15.00;15.00;;;;;35.56;32.87;100692.19;144150;603;132010;-71
2021/06/22 07:05:01;;;;;;;;;13.67;13.33;;;;;35.45;33.90;100690.25;144154;577;132012;-70
2021/06/22 07:07:31;;;;;;;;;14.67;14.67;;;;;35.36;34.70;100690.41;144168;564;132010;-70
2021/06/22 07:10:01;;;;;;;;;17.00;16.33;;;;;35.47;34.84;100693.50;144146;586;132012;-71
2021/06/22 07:12:31;;;;;;;;;16.67;14.67;;;;;35.58;34.43;100691.03;144171;574;132008;-71
2021/06/22 07:15:02;;;;;;;;;18.67;15.67;;;;;35.33;35.16;100697.56;144151;564;132023;-71
2021/06/22 07:17:32;;;;;;;;;12.67;12.33;;;;;35.41;34.55;100695.75;144168;569;132000;-72
2021/06/22 07:20:05;;;;;;;;;16.33;16.00;;;;;35.67;33.54;100697.31;144161;630;132018;-71
2021/06/22 07:22:36;;;;;;;;;17.33;17.00;;;;;35.77;33.19;100707.22;144168;588;132010;-72
2021/06/22 07:25:06;;;;;;;;;22.00;21.00;;;;;35.89;33.16;100711.94;144146;585;132012;-71
2021/06/22 07:27:36;;;;;;;;;17.33;16.67;;;;;35.95;32.89;100696.44;144152;590;132009;-71
2021/06/22 07:30:07;;;;;;;;;18.00;18.00;;;;;36.06;32.73;100691.13;144149;565;132012;-71
2021/06/22 07:32:38;;;;;;;;;17.33;16.67;;;;;36.25;33.29;100682.75;144170;639;132016;-71
2021/06/22 07:35:09;;;;;;;;;18.33;18.00;;;;;36.32;32.58;100672.88;144148;583;132020;-71
2021/06/22 07:37:40;;;;;;;;;16.67;16.00;;;;;36.31;32.96;100674.06;144168;604;132008;-71
2021/06/22 07:40:11;;;;;;;;;20.00;19.67;;;;;36.38;33.46;100685.47;144155;563;132010;-71
2021/06/22 07:42:41;;;;;;;;;19.00;19.00;;;;;36.46;33.24;100678.84;144168;678;132010;-71
2021/06/22 07:45:12;;;;;;;;;17.67;17.67;;;;;36.57;32.77;100676.28;144164;565;132907;-70
2021/06/22 07:47:49;;;;;;;;;18.00;17.33;;;;;36.54;32.27;100672.22;144173;569;132008;-71
2021/06/22 07:50:19;;;;;;;;;19.67;18.00;;;;;36.53;32.30;100679.03;144152;586;132011;-71
2021/06/22 07:52:49;;;;;;;;;16.67;16.00;;;;;36.60;32.35;100669.12;144156;564;131020;-70
2021/06/22 07:55:20;;;;;;;;;13.67;13.00;;;;;36.48;32.70;100667.19;144152;622;132907;-71
2021/06/22 07:57:51;;;;;;;;;18.00;17.33;;;;;36.43;32.90;100662.69;144170;651;132008;-70
2021/06/22 08:00:34;;;;;;;;;19.33;18.00;;;;;36.47;33.54;100666.38;144151;586;131907;-71
2021/06/22 08:03:08;;;;;;;;;21.33;19.67;;;;;36.48;33.83;100684.09;144173;621;131020;-71
2021/06/22 08:05:38;;;;;;;;;16.67;16.00;;;;;36.48;33.25;100681.28;144148;626;132020;-72
2021/06/22 08:08:12;;;;;;;;;17.33;17.00;;;;;36.41;32.93;100679.09;144168;580;132010;-71
2021/06/22 08:10:42;;;;;;;;;21.00;19.67;;;;;36.38;32.93;100677.03;144167;605;132906;-72
2021/06/22 08:13:13;;;;;;;;;18.00;18.00;;;;;36.40;33.06;100683.94;144169;570;132010;-71
2021/06/22 08:15:43;;;;;;;;;18.00;18.00;;;;;36.49;32.63;100680.91;144150;589;132010;-71
2021/06/22 08:18:13;;;;;;;;;19.33;18.33;;;;;36.61;32.57;100688.47;144157;576;131020;-71
2021/06/22 08:20:44;;;;;;;;;20.33;16.00;;;;;36.74;32.62;100685.53;144145;571;132907;-71
2021/06/22 08:23:15;;;;;;;;;25.33;22.67;;;;;36.76;32.17;100683.97;144168;583;132010;-73
2021/06/22 08:25:45;;;;;;;;;19.67;18.33;;;;;36.91;32.06;100675.84;144150;577;132020;-71
2021/06/22 08:28:16;;;;;;;;;16.00;16.00;;;;;37.10;31.97;100675.06;144172;564;131021;-72
2021/06/22 08:30:47;;;;;;;;;17.33;17.33;;;;;37.21;31.57;100680.94;144150;584;132906;-71
2021/06/22 08:33:18;;;;;;;;;14.00;14.00;;;;;37.17;31.26;100685.69;144176;563;131020;-71
2021/06/22 08:35:48;;;;;;;;;17.33;16.67;;;;;37.21;31.64;100675.28;144162;570;132928;-71
2021/06/22 08:38:18;;;;;;;;;16.67;16.67;;;;;37.30;31.77;100673.03;144171;595;131026;-71
2021/06/22 08:40:48;;;;;;;;;16.00;15.00;;;;;37.36;31.33;100677.22;144145;565;132907;-70
2021/06/22 08:43:18;;;;;;;;;15.00;15.00;;;;;37.44;31.48;100677.34;144156;627;132006;-72
2021/06/22 08:45:49;;;;;;;;;19.33;18.33;;;;;37.58;31.60;100683.28;144148;602;132909;-73
2021/06/22 08:48:19;;;;;;;;;15.00;14.33;;;;;37.61;31.21;100682.56;144173;580;131026;-74
2021/06/22 08:50:49;;;;;;;;;15.33;15.00;;;;;37.65;30.65;100694.72;144145;577;133016;-72
2021/06/22 08:53:19;;;;;;;;;14.67;14.67;;;;;37.72;30.63;100693.22;144165;649;132010;-72
2021/06/22 08:55:49;;;;;;;;;17.33;17.33;;;;;37.73;30.63;100704.13;144148;563;132008;-72
2021/06/22 08:58:20;;;;;;;;;16.33;15.00;;;;;37.78;31.40;100714.31;144175;655;131022;-73
2021/06/22 09:00:51;;;;;;;;;19.33;19.00;;;;;37.71;31.31;100712.16;144163;588;132010;-81
2021/06/22 09:03:25;;;;;;;;;20.00;19.00;;;;;37.60;31.79;100714.78;144168;564;132018;-74
2021/06/22 09:05:59;;;;;;;;;15.67;15.00;;;;;37.04;32.28;100714.00;144154;583;131907;-73
2021/06/22 09:08:31;;;;;;;;;19.67;19.33;;;;;36.91;32.61;100706.84;144153;575;132010;-72
2021/06/22 09:11:14;;;;;;;;;18.00;18.00;;;;;36.89;32.58;100700.75;144154;565;131907;-73
2021/06/22 09:13:59;;;;;;;;;21.00;19.00;;;;;36.94;32.43;100706.09;144173;622;131022;-73
2021/06/22 09:16:31;;;;;;;;;20.00;18.00;;;;;36.94;32.08;100703.28;144159;572;131028;-73
2021/06/22 09:19:10;;;;;;;;;15.00;15.00;;;;;37.04;32.50;100699.91;144167;595;132010;-74
2021/06/22 09:21:45;;;;;;;;;20.00;19.00;;;;;37.13;32.42;100707.31;144152;585;132010;-73
2021/06/22 09:24:24;;;;;;;;;21.33;20.67;;;;;37.09;31.59;100702.44;144173;579;131020;-74
2021/06/22 09:26:54;;;;;;;;;19.00;17.67;;;;;37.26;31.70;100697.53;144165;569;132010;-74
2021/06/22 09:29:25;;;;;;;;;18.33;18.00;;;;;37.40;31.57;100699.84;144172;635;132010;-74
2021/06/22 09:32:00;;;;;;;;;17.33;16.33;;;;;37.63;31.31;100708.37;144144;682;132906;-74
2021/06/22 09:34:30;;;;;;;;;19.00;18.00;;;;;37.84;30.31;100707.16;144161;581;132008;-74
2021/06/22 09:37:05;;;;;;;;;16.67;16.67;;;;;37.90;30.20;100711.31;144149;575;132021;-76
2021/06/22 09:39:35;;;;;;;;;18.33;18.00;;;;;37.97;29.35;100706.97;144168;563;132008;-75
2021/06/22 09:42:12;;;;;;;;;14.00;14.00;;;;;38.05;29.05;100715.22;144148;607;132907;-74
2021/06/22 09:44:42;;;;;;;;;17.67;16.67;;;;;38.20;29.15;100710.63;144172;624;132027;-74
2021/06/22 09:47:13;;;;;;;;;15.67;14.67;;;;;38.36;29.48;100713.31;144146;578;132010;-70
2021/06/22 09:49:43;;;;;;;;;15.00;13.33;;;;;38.38;27.90;100704.47;144162;660;132011;-73
2021/06/22 09:52:15;;;;;;;;;18.33;16.33;;;;;38.41;28.33;100689.56;144161;630;132010;-74
2021/06/22 09:54:50;;;;;;;;;18.00;17.33;;;;;38.34;28.64;100695.13;144167;577;132022;-74
2021/06/22 09:57:27;;;;;;;;;11.00;11.00;;;;;38.14;27.84;100698.00;144154;601;132010;-72
2021/06/22 10:00:08;;;;;;;;;18.33;17.33;;;;;38.28;28.40;100682.50;144153;566;133010;-74
2021/06/22 10:02:51;;;;;;;;;15.33;15.00;;;;;38.33;28.57;100693.47;144149;599;132012;-75
2021/06/22 10:05:21;;;;;;;;;18.00;17.33;;;;;38.42;28.22;100696.84;144176;578;131021;-75
2021/06/22 10:08:02;;;;;;;;;14.33;11.67;;;;;38.47;27.87;100692.94;144149;609;132906;-75
2021/06/22 10:10:37;;;;;;;;;17.00;13.33;;;;;38.31;28.06;100701.50;144173;591;131020;-75
2021/06/22 10:13:08;;;;;;;;;15.00;14.00;;;;;38.27;28.02;100697.81;144152;589;132907;-73
2021/06/22 10:15:38;;;;;;;;;17.67;17.33;;;;;38.17;28.78;100702.09;144167;586;132010;-74
2021/06/22 10:18:08;;;;;;;;;14.33;14.33;;;;;37.98;29.26;100697.31;144165;602;132016;-73
2021/06/22 10:20:38;;;;;;;;;8.67;8.33;;;;;37.67;29.23;100692.34;144162;586;132011;-74
2021/06/22 10:23:10;;;;;;;;;17.00;15.67;;;;;37.74;28.93;100696.47;144155;601;132010;-74
2021/06/22 10:25:40;;;;;;;;;14.33;13.67;;;;;37.83;28.51;100694.22;144158;677;131020;-74
2021/06/22 10:28:11;;;;;;;;;12.00;12.00;;;;;37.82;28.76;100692.59;144148;677;132012;-76
2021/06/22 10:30:41;;;;;;;;;18.67;18.33;;;;;37.80;27.85;100689.34;144167;570;132008;-74
2021/06/22 10:33:12;;;;;;;;;15.67;15.33;;;;;37.69;27.92;100688.31;144151;569;132907;-75
2021/06/22 10:35:45;;;;;;;;;15.67;15.00;;;;;37.85;27.48;100686.19;144177;593;131020;-75
2021/06/22 10:38:19;;;;;;;;;16.67;15.33;;;;;37.89;27.26;100681.41;144151;656;132010;-74
2021/06/22 10:40:54;;;;;;;;;10.33;9.33;;;;;38.07;26.85;100678.16;144170;628;132008;-74
2021/06/22 10:43:40;;;;;;;;;10.00;10.00;;;;;38.10;26.71;100680.22;144176;603;131012;-74
2021/06/22 10:46:17;;;;;;;;;12.67;10.67;;;;;38.10;26.27;100668.91;144175;611;131020;-73
2021/06/22 10:48:49;;;;;;;;;16.67;16.67;;;;;38.09;26.76;100668.09;144152;631;131907;-74
2021/06/22 10:51:30;;;;;;;;;8.00;8.00;;;;;37.90;26.43;100671.78;144168;581;132010;-76
2021/06/22 10:54:00;;;;;;;;;15.33;15.33;;;;;37.94;26.97;100669.00;144152;644;132010;-75
2021/06/22 10:56:33;;;;;;;;;13.67;12.00;;;;;38.02;26.57;100669.97;144172;582;132008;-73
2021/06/22 10:59:25;;;;;;;;;17.67;15.67;;;;;38.22;26.21;100677.19;144157;597;131907;-75
2021/06/22 11:02:00;;;;;;;;;17.67;17.00;;;;;38.25;25.97;100669.94;144170;590;132010;-74
2021/06/22 11:04:32;;;;;;;;;14.67;13.33;;;;;38.19;27.29;100658.19;144152;604;132907;-74
2021/06/22 11:07:22;;;;;;;;;11.00;9.67;;;;;38.20;26.85;100664.63;144174;569;131026;-76
2021/06/22 11:10:15;;;;;;;;;14.67;14.67;;;;;38.30;26.68;100671.63;144160;601;132010;-74
2021/06/22 11:12:47;;;;;;;;;17.67;17.67;;;;;38.14;26.79;100663.34;144175;588;131021;-73
2021/06/22 11:15:17;;;;;;;;;11.67;11.67;;;;;38.15;27.28;100662.94;144152;629;134010;-74
2021/06/22 11:17:57;;;;;;;;;15.33;15.33;;;;;38.19;26.86;100666.66;144160;566;132008;-75
2021/06/22 11:20:30;;;;;;;;;16.00;16.00;;;;;38.24;26.96;100671.13;144157;645;131907;-75